createdAt,value
2018-06-22T00:01:27.706Z,91.60
2018-06-22T00:03:55.972Z,91.40
2018-06-22T00:06:24.288Z,91.20
2018-06-22T00:08:52.891Z,90.70
2018-06-22T00:11:21.167Z,90.30
2018-06-22T00:13:49.434Z,90.50
2018-06-22T00:16:17.707Z,90.20
2018-06-22T00:18:46.263Z,91.40
2018-06-22T00:21:14.514Z,90.60
2018-06-22T00:23:42.812Z,90.80
2018-06-22T00:26:11.062Z,90.80
2018-06-22T00:28:39.319Z,90.30
2018-06-22T00:31:07.588Z,90.90
2018-06-22T00:33:35.893Z,90.50
2018-06-22T00:36:04.135Z,90.80
2018-06-22T00:38:32.408Z,91.20
2018-06-22T00:41:00.914Z,90.60
2018-06-22T00:43:29.240Z,90.60
2018-06-22T00:45:57.529Z,90.70
2018-06-22T00:48:25.787Z,90.60
2018-06-22T00:50:54.252Z,90.80
2018-06-22T00:53:33.830Z,91.20
2018-06-22T00:56:02.081Z,91.40
2018-06-22T00:58:30.378Z,91.30
2018-06-22T01:03:27.178Z,91.30
2018-06-22T01:05:55.454Z,91.70
2018-06-22T01:08:23.699Z,92.10
2018-06-22T01:10:51.964Z,92.50
2018-06-22T01:13:20.250Z,92.50
2018-06-22T01:15:48.530Z,92.50
2018-06-22T01:18:16.763Z,92.00
2018-06-22T01:20:45.343Z,91.90
2018-06-22T01:23:13.951Z,92.30
2018-06-22T01:25:42.239Z,92.50
2018-06-22T01:28:10.512Z,92.40
2018-06-22T01:30:38.756Z,92.40
2018-06-22T01:33:07.063Z,92.00
2018-06-22T01:35:35.310Z,92.40
2018-06-22T01:38:03.583Z,92.80
2018-06-22T01:40:31.863Z,92.60
2018-06-22T01:43:00.141Z,92.90
2018-06-22T01:45:28.371Z,92.80
2018-06-22T01:47:56.631Z,92.90
2018-06-22T01:50:24.862Z,93.00
2018-06-22T01:52:53.164Z,93.20
2018-06-22T01:55:21.411Z,93.20
2018-06-22T01:57:49.685Z,93.60
2018-06-22T02:00:17.955Z,93.30
2018-06-22T02:02:46.225Z,93.10
2018-06-22T02:05:14.490Z,93.50
2018-06-22T02:07:42.766Z,93.50
2018-06-22T02:10:11.027Z,93.60
2018-06-22T02:12:39.272Z,94.00
2018-06-22T02:15:07.561Z,94.00
2018-06-22T02:17:35.852Z,93.80
2018-06-22T02:20:04.129Z,93.80
2018-06-22T02:22:32.394Z,93.70
2018-06-22T02:25:00.718Z,93.90
2018-06-22T02:27:28.987Z,93.80
2018-06-22T02:29:57.244Z,93.70
2018-06-22T02:32:25.506Z,94.00
2018-06-22T02:34:53.804Z,94.30
2018-06-22T02:37:22.133Z,93.70
2018-06-22T02:39:50.382Z,92.70
2018-06-22T02:42:18.619Z,93.00
2018-06-22T02:44:47.226Z,93.10
2018-06-22T02:47:15.794Z,93.20
2018-06-22T02:49:44.097Z,93.40
2018-06-22T02:52:12.363Z,93.20
2018-06-22T02:54:40.631Z,93.20
2018-06-22T02:57:08.882Z,93.20
2018-06-22T02:59:37.172Z,93.20
2018-06-22T03:02:05.406Z,93.20
2018-06-22T03:04:33.695Z,93.20
2018-06-22T03:07:01.947Z,93.10
2018-06-22T03:09:30.201Z,93.10
2018-06-22T03:11:58.503Z,92.60
2018-06-22T03:14:26.788Z,93.40
2018-06-22T03:16:55.245Z,92.90
2018-06-22T03:19:23.499Z,93.20
2018-06-22T03:21:51.763Z,93.20
2018-06-22T03:24:20.065Z,92.70
2018-06-22T03:26:48.364Z,92.50
2018-06-22T03:29:16.839Z,92.50
2018-06-22T03:31:45.093Z,92.80
2018-06-22T03:34:13.354Z,93.10
2018-06-22T03:36:41.636Z,93.30
2018-06-22T03:39:10.232Z,93.50
2018-06-22T03:41:38.663Z,92.80
2018-06-22T03:44:06.927Z,92.50
2018-06-22T03:46:35.219Z,92.40
2018-06-22T03:49:03.467Z,92.60
2018-06-22T03:51:31.738Z,92.90
2018-06-22T03:54:00.090Z,93.00
2018-06-22T03:56:28.379Z,93.20
2018-06-22T03:58:56.639Z,92.90
2018-06-22T04:01:24.905Z,92.90
2018-06-22T04:03:53.180Z,91.90
2018-06-22T04:06:21.495Z,92.70
2018-06-22T04:08:49.730Z,91.80
2018-06-22T04:11:17.966Z,91.90
2018-06-22T04:13:46.305Z,92.00
2018-06-22T04:16:14.577Z,92.50
2018-06-22T04:18:42.894Z,92.50
2018-06-22T04:21:11.146Z,92.50
2018-06-22T04:23:39.438Z,92.50
2018-06-22T04:26:07.986Z,92.50
2018-06-22T04:28:36.244Z,92.50
2018-06-22T04:31:04.867Z,92.40
2018-06-22T04:33:39.334Z,91.80
2018-06-22T04:36:07.608Z,92.30
2018-06-22T04:38:35.874Z,92.10
2018-06-22T04:41:04.574Z,91.50
2018-06-22T04:43:32.865Z,91.80
2018-06-22T04:48:29.574Z,91.40
2018-06-22T04:50:57.828Z,91.90
2018-06-22T04:53:26.235Z,91.40
2018-06-22T04:55:54.779Z,91.10
2018-06-22T04:58:23.055Z,90.80
2018-06-22T05:00:51.574Z,90.80
2018-06-22T05:03:19.834Z,91.30
2018-06-22T05:05:48.101Z,91.50
2018-06-22T05:08:16.375Z,91.50
2018-06-22T05:10:44.834Z,91.70
2018-06-22T05:13:13.265Z,91.80
2018-06-22T05:15:41.888Z,92.10
2018-06-22T05:18:10.355Z,91.70
2018-06-22T05:20:38.681Z,91.80
2018-06-22T05:23:07.355Z,91.60
2018-06-22T05:25:35.603Z,91.00
2018-06-22T05:28:03.881Z,91.00
2018-06-22T05:30:32.133Z,90.90
2018-06-22T05:33:00.420Z,91.20
2018-06-22T05:35:28.732Z,92.10
2018-06-22T05:37:57.040Z,91.40
2018-06-22T05:40:25.326Z,90.50
2018-06-22T05:42:53.657Z,88.70
2018-06-22T05:45:21.939Z,88.90
2018-06-22T05:47:50.268Z,86.20
2018-06-22T05:50:18.538Z,87.20
2018-06-22T05:52:46.848Z,86.00
2018-06-22T05:55:15.139Z,87.00
2018-06-22T05:57:43.463Z,87.50
2018-06-22T06:00:11.715Z,89.00
2018-06-22T06:02:40.910Z,89.60
2018-06-22T06:05:09.510Z,90.10
2018-06-22T06:07:37.826Z,90.60
2018-06-22T06:10:06.191Z,90.70
2018-06-22T06:12:34.801Z,91.00
2018-06-22T06:15:03.229Z,91.50
2018-06-22T06:17:31.505Z,91.60
2018-06-22T06:19:59.808Z,91.90
2018-06-22T06:22:28.484Z,92.40
2018-06-22T06:24:56.740Z,93.20
2018-06-22T06:27:25.186Z,93.20
2018-06-22T06:29:53.777Z,93.40
2018-06-22T06:34:56.426Z,93.80
2018-06-22T06:37:28.516Z,94.20
2018-06-22T06:39:56.856Z,94.40
2018-06-22T06:42:25.120Z,94.50
2018-06-22T06:44:53.422Z,95.40
2018-06-22T06:47:21.690Z,96.20
2018-06-22T06:49:49.930Z,97.10
2018-06-22T06:52:21.290Z,97.40
2018-06-22T06:57:27.063Z,97.60
2018-06-22T06:59:58.383Z,97.90
2018-06-22T07:02:26.682Z,96.70
2018-06-22T07:04:55.183Z,97.20
2018-06-22T07:07:23.511Z,97.00
2018-06-22T07:09:51.826Z,97.40
2018-06-22T07:12:20.120Z,96.60
2018-06-22T07:14:48.455Z,96.40
2018-06-22T07:17:16.955Z,96.60
2018-06-22T07:19:45.447Z,96.70
2018-06-22T07:22:13.763Z,96.30
2018-06-22T07:24:54.538Z,96.00
2018-06-22T07:27:26.081Z,95.70
2018-06-22T07:29:54.412Z,95.80
2018-06-22T07:32:26.066Z,95.40
2018-06-22T07:34:54.401Z,95.60
2018-06-22T07:37:22.791Z,94.90
2018-06-22T07:39:51.072Z,95.40
2018-06-22T07:42:19.763Z,95.70
2018-06-22T07:44:48.063Z,96.00
2018-06-22T07:47:16.342Z,95.30
2018-06-22T07:49:44.750Z,94.90
2018-06-22T07:52:13.294Z,95.90
2018-06-22T07:54:41.615Z,94.80
2018-06-22T07:57:10.128Z,95.10
2018-06-22T07:59:38.591Z,94.90
2018-06-22T08:02:06.971Z,95.00
2018-06-22T08:04:35.364Z,94.60
2018-06-22T08:07:03.681Z,94.60
2018-06-22T08:09:32.016Z,95.50
2018-06-22T08:12:00.333Z,95.20
2018-06-22T08:14:28.636Z,95.30
2018-06-22T08:26:09.206Z,96.20
2018-06-22T08:28:37.584Z,95.20
2018-06-22T08:31:05.871Z,94.30
2018-06-22T08:33:34.201Z,94.40
2018-06-22T08:36:02.481Z,94.50
2018-06-22T08:38:30.948Z,94.10
2018-06-22T08:43:27.643Z,94.80
2018-06-22T08:45:57.730Z,94.50
2018-06-22T08:48:26.053Z,95.30
2018-06-22T08:50:54.378Z,95.60
2018-06-22T08:53:24.450Z,94.70
2018-06-22T08:55:52.833Z,95.10
2018-06-22T08:58:21.212Z,97.40
2018-06-22T09:00:49.557Z,99.10
2018-06-22T09:03:17.914Z,99.90
2018-06-22T09:05:46.167Z,99.90
2018-06-22T09:08:14.606Z,99.90
2018-06-22T09:10:43.671Z,99.90
2018-06-22T09:13:14.097Z,99.90
2018-06-22T09:15:43.495Z,99.90
2018-06-22T09:18:11.789Z,99.90
2018-06-22T09:23:14.254Z,99.90
2018-06-22T09:25:42.560Z,99.90
2018-06-22T09:28:10.927Z,99.90
2018-06-22T09:30:39.223Z,99.90
2018-06-22T09:33:07.527Z,99.90
2018-06-22T09:35:35.893Z,99.90
2018-06-22T09:38:04.580Z,99.90
2018-06-22T09:40:32.841Z,99.90
2018-06-22T09:43:01.290Z,99.90
2018-06-22T09:45:29.690Z,99.90
2018-06-22T09:47:58.315Z,99.90
2018-06-22T09:50:26.631Z,99.90
2018-06-22T09:52:55.265Z,99.90
2018-06-22T09:55:23.551Z,99.90
2018-06-22T09:57:51.856Z,99.90
2018-06-22T10:00:20.155Z,99.90
2018-06-22T10:02:49.072Z,99.90
2018-06-22T10:07:45.643Z,99.90
2018-06-22T10:10:13.929Z,99.90
2018-06-22T10:12:42.255Z,99.90
2018-06-22T10:15:10.581Z,99.90
2018-06-22T10:17:39.118Z,99.90
2018-06-22T10:20:07.408Z,99.90
2018-06-22T10:22:35.787Z,99.90
2018-06-22T10:27:32.532Z,99.90
2018-06-22T10:30:00.913Z,99.90
2018-06-22T10:32:29.252Z,99.90
2018-06-22T10:34:57.590Z,99.90
2018-06-22T10:37:26.138Z,99.90
2018-06-22T10:39:54.858Z,99.90
2018-06-22T10:42:23.817Z,99.90
2018-06-22T10:44:52.136Z,99.90
2018-06-22T10:47:20.453Z,99.90
2018-06-22T10:49:48.804Z,99.90
2018-06-22T10:52:17.130Z,99.90
2018-06-22T10:54:45.850Z,99.90
2018-06-22T10:57:14.738Z,99.90
2018-06-22T10:59:43.441Z,99.90
2018-06-22T11:02:12.010Z,99.90
2018-06-22T11:04:40.339Z,99.90
2018-06-22T11:07:09.460Z,99.90
2018-06-22T11:09:38.080Z,99.90
2018-06-22T11:12:06.788Z,99.90
2018-06-22T11:14:35.183Z,99.90
2018-06-22T11:17:03.675Z,99.90
2018-06-22T11:19:32.198Z,99.90
2018-06-22T11:22:00.564Z,99.90
2018-06-22T11:24:29.331Z,99.90
2018-06-22T11:26:57.780Z,99.90
2018-06-22T11:29:26.243Z,99.90
2018-06-22T11:31:54.625Z,99.90
2018-06-22T11:34:23.408Z,99.20
2018-06-22T11:36:51.813Z,99.90
2018-06-22T11:39:20.356Z,99.90
2018-06-22T11:41:48.759Z,99.10
2018-06-22T11:44:17.132Z,99.90
2018-06-22T11:46:45.627Z,97.80
2018-06-22T11:49:14.004Z,95.80
2018-06-22T11:51:42.414Z,96.50
2018-06-22T11:54:10.737Z,94.20
2018-06-22T11:56:39.095Z,95.30
2018-06-22T11:59:07.531Z,96.10
2018-06-22T12:01:36.447Z,95.10
2018-06-22T12:04:05.100Z,94.90
2018-06-22T12:06:33.394Z,92.70
2018-06-22T12:09:01.670Z,93.80
2018-06-22T12:11:29.970Z,94.30
2018-06-22T12:16:26.500Z,94.20
2018-06-22T12:18:54.804Z,95.50
2018-06-22T12:21:23.128Z,96.20
2018-06-22T12:23:51.447Z,97.30
2018-06-22T12:26:20.179Z,97.10
2018-06-22T12:28:48.659Z,96.60
2018-06-22T12:31:16.964Z,96.80
2018-06-22T12:33:45.247Z,97.10
2018-06-22T12:36:13.572Z,99.90
2018-06-22T12:41:10.252Z,98.90
2018-06-22T12:43:38.528Z,99.90
2018-06-22T12:46:07.357Z,99.90
2018-06-22T12:48:35.676Z,99.90
2018-06-22T12:51:03.981Z,99.90
2018-06-22T12:53:32.318Z,99.90
2018-06-22T12:56:00.614Z,99.90
2018-06-22T12:58:29.037Z,99.90
2018-06-22T13:00:57.444Z,99.90
2018-06-22T13:03:25.744Z,99.90
2018-06-22T13:05:54.181Z,99.90
2018-06-22T13:08:22.447Z,99.90
2018-06-22T13:10:50.712Z,99.90
2018-06-22T13:13:19.086Z,99.90
2018-06-22T13:15:47.404Z,99.90
2018-06-22T13:18:16.011Z,99.90
2018-06-22T13:20:44.361Z,99.90
2018-06-22T13:23:12.631Z,99.90
2018-06-22T13:25:40.968Z,99.90
2018-06-22T13:28:09.624Z,99.90
2018-06-22T13:30:37.947Z,99.90
2018-06-22T13:33:06.329Z,99.90
2018-06-22T13:38:03.047Z,99.90
2018-06-22T13:45:28.119Z,99.90
2018-06-22T13:47:56.419Z,99.90
2018-06-22T13:50:24.728Z,99.90
2018-06-22T13:52:53.022Z,99.90
2018-06-22T13:55:21.528Z,99.90
2018-06-22T13:57:49.844Z,99.90
2018-06-22T14:00:18.209Z,99.90
2018-06-22T14:05:20.464Z,99.90
2018-06-22T14:07:48.852Z,99.90
2018-06-22T14:10:17.151Z,99.90
2018-06-22T14:12:45.518Z,99.90
2018-06-22T14:15:13.925Z,99.90
2018-06-22T14:17:42.231Z,99.90
2018-06-22T14:20:10.624Z,99.00
2018-06-22T14:22:39.145Z,98.40
2018-06-22T14:25:07.629Z,98.30
2018-06-22T14:27:36.070Z,98.70
2018-06-22T14:30:04.992Z,96.60
2018-06-22T14:32:33.475Z,96.20
2018-06-22T14:35:01.876Z,96.70
2018-06-22T14:37:30.575Z,95.70
2018-06-22T14:39:59.108Z,95.90
2018-06-22T14:42:27.478Z,96.10
2018-06-22T14:44:56.019Z,96.60
2018-06-22T14:47:24.657Z,97.60
2018-06-22T14:49:53.260Z,98.20
2018-06-22T14:52:21.776Z,97.60
2018-06-22T14:54:55.450Z,97.90
2018-06-22T14:57:29.171Z,97.80
2018-06-22T15:00:03.018Z,96.10
2018-06-22T15:02:48.638Z,96.60
2018-06-22T15:05:22.521Z,96.60
2018-06-22T15:07:55.355Z,97.40
2018-06-22T15:10:24.098Z,97.50
2018-06-22T15:12:52.498Z,96.90
2018-06-22T15:17:53.229Z,95.90
2018-06-22T15:27:46.708Z,94.70
2018-06-22T15:30:15.038Z,94.80
2018-06-22T15:32:43.490Z,94.90
2018-06-22T15:35:17.079Z,94.50
2018-06-22T15:37:50.547Z,94.90
2018-06-22T15:40:24.635Z,94.70
2018-06-22T15:42:58.934Z,95.10
2018-06-22T15:45:33.503Z,96.00
2018-06-22T15:48:07.279Z,95.40
2018-06-22T15:50:41.018Z,94.70
2018-06-22T15:53:14.805Z,96.00
2018-06-22T15:55:45.926Z,96.20
2018-06-22T15:58:14.245Z,96.60
2018-06-22T16:00:42.546Z,96.70
2018-06-22T16:03:16.399Z,96.80
2018-06-22T16:05:44.895Z,96.10
2018-06-22T16:08:13.816Z,96.10
2018-06-22T16:13:24.505Z,95.20
2018-06-22T16:15:58.227Z,94.60
2018-06-22T16:18:32.267Z,95.30
2018-06-22T16:21:05.707Z,95.50
2018-06-22T16:23:39.313Z,95.10
2018-06-22T16:26:13.144Z,96.40
2018-06-22T16:28:41.461Z,96.40
2018-06-22T16:31:09.883Z,96.70
2018-06-22T16:33:42.584Z,96.00
2018-06-22T16:36:11.111Z,96.80
2018-06-22T16:38:39.443Z,96.50
2018-06-22T16:41:07.725Z,95.60
2018-06-22T16:43:36.016Z,95.60
2018-06-22T16:46:04.556Z,96.60
2018-06-22T16:48:33.011Z,95.90
2018-06-22T16:51:01.266Z,96.30
2018-06-22T16:53:29.871Z,96.00
2018-06-22T16:55:58.225Z,95.60
2018-06-22T16:58:31.962Z,95.00
2018-06-22T17:01:00.287Z,94.60
2018-06-22T17:03:29.000Z,94.50
2018-06-22T17:05:57.488Z,94.30
2018-06-22T17:08:31.733Z,93.60
2018-06-22T17:11:05.545Z,94.00
2018-06-22T17:13:39.318Z,94.80
2018-06-22T17:16:12.927Z,95.40
2018-06-22T17:18:46.752Z,94.90
2018-06-22T17:21:15.039Z,95.40
2018-06-22T17:23:43.328Z,94.90
2018-06-22T17:26:11.615Z,95.00
2018-06-22T17:28:39.886Z,94.70
2018-06-22T17:31:08.802Z,94.90
2018-06-22T17:33:37.177Z,95.20
2018-06-22T17:36:05.527Z,95.20
2018-06-22T17:38:34.147Z,95.40
2018-06-22T17:41:02.782Z,95.50
2018-06-22T17:43:31.137Z,95.60
2018-06-22T17:45:59.416Z,95.90
2018-06-22T17:48:27.915Z,95.90
2018-06-22T17:50:56.294Z,96.40
2018-06-22T17:53:24.620Z,96.40
2018-06-22T17:58:21.502Z,96.40
2018-06-22T18:00:55.309Z,96.60
2018-06-22T18:03:29.237Z,96.70
2018-06-22T18:06:02.891Z,97.20
2018-06-22T18:08:36.675Z,97.70
2018-06-22T18:11:10.288Z,97.90
2018-06-22T18:13:38.700Z,98.30
2018-06-22T18:16:07.532Z,98.00
2018-06-22T18:18:36.007Z,97.40
2018-06-22T18:21:04.370Z,97.30
2018-06-22T18:23:32.696Z,97.30
2018-06-22T18:26:00.985Z,97.90
2018-06-22T18:28:29.267Z,97.90
2018-06-22T18:30:57.578Z,97.50
2018-06-22T18:33:25.896Z,98.00
2018-06-22T18:35:54.185Z,97.20
2018-06-22T18:38:22.457Z,96.80
2018-06-22T18:40:50.746Z,96.90
2018-06-22T18:43:24.297Z,96.70
2018-06-22T18:45:52.629Z,97.00
2018-06-22T18:48:20.937Z,96.70
2018-06-22T18:50:49.243Z,96.90
2018-06-22T18:53:22.871Z,97.30
2018-06-22T18:55:56.668Z,96.60
2018-06-22T18:58:30.297Z,96.70
2018-06-22T19:01:04.060Z,96.90
2018-06-22T19:03:38.017Z,96.70
2018-06-22T19:06:06.423Z,96.60
2018-06-22T19:08:34.745Z,96.90
2018-06-22T19:11:03.460Z,96.60
2018-06-22T19:13:32.102Z,97.00
2018-06-22T19:16:00.820Z,96.80
2018-06-22T19:20:57.345Z,98.10
2018-06-22T19:23:25.660Z,97.20
2018-06-22T19:25:53.961Z,97.50
2018-06-22T19:30:50.923Z,98.40
2018-06-22T19:33:19.332Z,97.10
2018-06-22T19:35:47.652Z,96.50
2018-06-22T19:38:15.994Z,96.10
2018-06-22T19:40:44.713Z,95.80
2018-06-22T19:43:18.440Z,95.70
2018-06-22T19:45:52.176Z,95.70
2018-06-22T19:50:59.204Z,95.30
2018-06-22T19:53:32.806Z,95.90
2018-06-22T19:56:01.125Z,96.00
2018-06-22T19:58:29.465Z,95.80
2018-06-22T20:00:57.830Z,96.90
2018-06-22T20:03:26.406Z,96.20
2018-06-22T20:05:54.754Z,96.40
2018-06-22T20:08:23.375Z,97.20
2018-06-22T20:10:51.964Z,96.70
2018-06-22T20:13:20.346Z,97.00
2018-06-22T20:15:48.672Z,97.10
2018-06-22T20:18:17.022Z,97.00
2018-06-22T20:23:13.636Z,97.40
2018-06-22T20:25:45.718Z,96.90
2018-06-22T20:28:15.267Z,97.50
2018-06-22T20:30:44.556Z,97.50
2018-06-22T20:33:13.220Z,97.10
2018-06-22T20:35:46.980Z,97.40
2018-06-22T20:40:54.479Z,97.40
2018-06-22T20:43:28.183Z,97.10
2018-06-22T20:45:57.764Z,97.10
2018-06-22T20:48:31.628Z,97.30
2018-06-22T20:51:00.179Z,97.50
2018-06-22T20:53:28.537Z,98.00
2018-06-22T20:55:56.936Z,97.80
2018-06-22T20:58:25.226Z,98.00
2018-06-22T21:00:53.544Z,98.40
2018-06-22T21:03:21.935Z,98.60
2018-06-22T21:05:50.280Z,98.80
2018-06-22T21:08:18.624Z,99.00
2018-06-22T21:10:46.927Z,99.30
2018-06-22T21:13:15.586Z,99.70
2018-06-22T21:15:43.900Z,99.60
2018-06-22T21:18:12.727Z,99.50
2018-06-22T21:20:46.788Z,99.80
2018-06-22T21:30:05.010Z,99.90
2018-06-22T21:32:38.765Z,99.90
2018-06-22T21:35:13.292Z,99.90
2018-06-22T21:37:47.564Z,99.90
2018-06-22T21:40:15.898Z,99.90
2018-06-22T21:42:44.675Z,99.90
2018-06-22T21:45:13.598Z,99.90
2018-06-22T21:47:41.937Z,99.90
2018-06-22T21:50:10.971Z,99.90
2018-06-22T21:52:39.345Z,99.90
2018-06-22T21:57:35.741Z,99.90
2018-06-22T22:00:05.699Z,99.90
2018-06-22T22:02:34.750Z,99.90
2018-06-22T22:05:03.050Z,99.90
2018-06-22T22:07:31.327Z,99.90
2018-06-22T22:09:59.957Z,99.90
2018-06-22T22:12:28.682Z,99.90
2018-06-22T22:14:56.964Z,99.90
2018-06-22T22:17:25.249Z,99.90
2018-06-22T22:19:53.538Z,99.90
2018-06-22T22:22:21.843Z,99.90
2018-06-22T22:24:50.579Z,99.90
2018-06-22T22:27:18.860Z,99.90
2018-06-22T22:29:47.189Z,99.90
2018-06-22T22:32:15.480Z,99.90
2018-06-22T22:34:44.100Z,99.90
2018-06-22T22:37:12.629Z,99.90
2018-06-22T22:39:41.025Z,99.90
2018-06-22T22:42:09.543Z,99.90
2018-06-22T22:44:37.840Z,99.90
2018-06-22T22:47:06.160Z,99.90
2018-06-22T22:56:18.369Z,99.90
2018-06-22T22:58:46.664Z,99.90
2018-06-22T23:01:14.936Z,99.90
2018-06-22T23:03:43.221Z,99.90
2018-06-22T23:06:11.471Z,99.90
2018-06-22T23:08:39.778Z,99.90
2018-06-22T23:11:08.108Z,99.90
2018-06-22T23:13:36.382Z,99.90
2018-06-22T23:16:05.004Z,99.90
2018-06-22T23:18:33.783Z,99.90
2018-06-22T23:21:02.296Z,99.90
2018-06-22T23:23:33.615Z,99.90
2018-06-22T23:26:02.650Z,99.90
2018-06-22T23:28:31.431Z,99.90
2018-06-22T23:31:01.167Z,99.90
2018-06-22T23:33:30.254Z,99.90
2018-06-22T23:35:59.064Z,99.90
2018-06-22T23:38:27.395Z,99.90
2018-06-22T23:40:55.900Z,99.90
2018-06-22T23:43:24.172Z,99.90
2018-06-22T23:45:52.492Z,99.90
2018-06-22T23:48:20.751Z,99.90
2018-06-22T23:50:49.058Z,99.90
2018-06-22T23:53:17.360Z,99.90
2018-06-22T23:55:45.653Z,99.90
2018-06-22T23:58:13.909Z,99.90
